Time;durP1;ratioP1;P1;durP2;ratioP2;P2;SDS_P1;SDS_P2;PMS_P1;PMS_P2;Temp;Humidity;BMP_temperature;BMP_pressure;BME280_temperature;BME280_humidity;BME280_pressure;Samples;Min_cycle;Max_cycle;Signal;HPM_P1;HPM_P2
2022/04/10 00:00:15;;;;;;;5.43;1.90;;;4.80;75.60;;;;;;9186508;19;20019;-61
2022/04/10 00:03:22;;;;;;;8.32;2.17;;;4.70;75.70;;;;;;9185951;19;20089;-61
2022/04/10 00:06:28;;;;;;;8.70;2.38;;;4.80;75.70;;;;;;9188366;19;20011;-65
2022/04/10 00:09:38;;;;;;;7.15;1.85;;;4.70;75.70;;;;;;9183855;19;20014;-61
2022/04/10 00:12:45;;;;;;;4.85;1.98;;;4.70;75.70;;;;;;9188275;19;20030;-60
2022/04/10 00:15:53;;;;;;;15.05;3.22;;;4.70;75.80;;;;;;9186515;19;20014;-62
2022/04/10 00:19:01;;;;;;;7.40;2.22;;;4.70;75.80;;;;;;9187215;19;20018;-62
2022/04/10 00:22:07;;;;;;;10.57;2.40;;;4.70;75.80;;;;;;9186056;19;20496;-60
2022/04/10 00:25:13;;;;;;;5.60;2.35;;;4.70;75.90;;;;;;9185355;19;20015;-61
2022/04/10 00:28:18;;;;;;;10.93;2.22;;;4.70;75.90;;;;;;9184413;19;20025;-62
2022/04/10 00:31:26;;;;;;;8.98;2.42;;;4.70;76.00;;;;;;9186445;19;20018;-63
2022/04/10 00:34:31;;;;;;;11.98;2.33;;;4.70;76.00;;;;;;9187268;19;20010;-61
2022/04/10 00:37:36;;;;;;;8.63;2.33;;;4.70;76.00;;;;;;9181040;19;20103;-61
2022/04/10 00:40:41;;;;;;;18.20;2.53;;;4.70;76.00;;;;;;9187742;19;20046;-61
2022/04/10 00:44:08;;;;;;;9.23;2.35;;;4.70;76.00;;;;;;9183766;19;20430;-61
2022/04/10 00:47:16;;;;;;;8.85;2.28;;;4.70;76.10;;;;;;9185436;19;20007;-61
2022/04/10 00:50:22;;;;;;;14.32;2.60;;;4.70;76.00;;;;;;9186904;19;20015;-61
2022/04/10 00:53:28;;;;;;;7.43;2.05;;;4.60;76.00;;;;;;9183483;19;20018;-62
2022/04/10 00:56:34;;;;;;;7.03;2.10;;;4.60;76.00;;;;;;9186022;19;20021;-61
2022/04/10 00:59:40;;;;;;;8.73;2.70;;;4.60;76.00;;;;;;9184491;19;20025;-60
2022/04/10 01:02:50;;;;;;;10.27;2.60;;;4.60;76.00;;;;;;9182695;19;20014;-62
2022/04/10 01:05:56;;;;;;;14.07;2.42;;;4.60;76.10;;;;;;9184516;19;20471;-60
2022/04/10 01:09:02;;;;;;;9.73;2.50;;;4.60;76.00;;;;;;9183894;19;20022;-61
2022/04/10 01:12:09;;;;;;;5.45;2.28;;;4.60;76.10;;;;;;9183987;19;20010;-61
2022/04/10 01:15:30;;;;;;;8.32;1.95;;;4.60;76.00;;;;;;9184191;19;20017;-62
2022/04/10 01:18:41;;;;;;;8.77;3.00;;;4.60;76.00;;;;;;9183573;19;20015;-61
2022/04/10 01:21:48;;;;;;;7.03;2.35;;;4.60;76.10;;;;;;9184515;19;20010;-61
2022/04/10 01:24:57;;;;;;;9.13;2.15;;;4.60;76.10;;;;;;9181797;19;20018;-61
2022/04/10 01:28:14;;;;;;;12.23;2.55;;;4.50;76.10;;;;;;9183693;19;20081;-61
2022/04/10 01:31:20;;;;;;;19.63;3.30;;;4.50;76.10;;;;;;9183633;19;20034;-61
2022/04/10 01:34:25;;;;;;;10.02;2.33;;;4.50;76.10;;;;;;9183905;19;20117;-61
2022/04/10 01:37:33;;;;;;;8.88;2.42;;;4.50;76.20;;;;;;9178207;19;20014;-62
2022/04/10 01:40:41;;;;;;;13.23;2.85;;;4.50;76.10;;;;;;9183189;19;20423;-60
2022/04/10 01:43:50;;;;;;;13.63;2.30;;;4.50;76.20;;;;;;9182433;19;20010;-62
2022/04/10 01:46:55;;;;;;;13.25;2.35;;;4.50;76.20;;;;;;9183410;19;20014;-61
2022/04/10 01:50:00;;;;;;;8.27;2.42;;;4.40;76.20;;;;;;9182792;19;20022;-61
2022/04/10 01:53:07;;;;;;;11.32;3.20;;;4.40;76.20;;;;;;9182660;19;20029;-62
2022/04/10 01:56:16;;;;;;;13.45;2.30;;;4.50;76.30;;;;;;9181702;19;20006;-62
2022/04/10 01:59:21;;;;;;;10.55;2.58;;;4.40;76.20;;;;;;9181807;19;20031;-61
2022/04/10 02:02:27;;;;;;;10.77;2.80;;;4.40;76.20;;;;;;9181938;19;20018;-62
2022/04/10 02:05:32;;;;;;;10.93;2.60;;;4.40;76.20;;;;;;9180235;19;20074;-61
2022/04/10 02:08:38;;;;;;;11.50;2.70;;;4.40;76.30;;;;;;9181790;19;20015;-63
2022/04/10 02:11:49;;;;;;;15.93;3.00;;;4.40;76.30;;;;;;9184595;19;20014;-61
2022/04/10 02:14:58;;;;;;;16.08;2.55;;;4.40;76.30;;;;;;9183313;19;20356;-63
2022/04/10 02:18:04;;;;;;;10.40;2.50;;;4.40;76.30;;;;;;9180602;19;20051;-61
2022/04/10 02:21:12;;;;;;;23.85;2.90;;;4.40;76.40;;;;;;9179139;19;20014;-61
2022/04/10 02:24:18;;;;;;;12.00;3.22;;;4.30;76.30;;;;;;9181752;19;20022;-62
2022/04/10 02:27:26;;;;;;;12.07;2.83;;;4.40;76.40;;;;;;9181430;19;20483;-61
2022/04/10 02:30:31;;;;;;;15.50;2.95;;;4.30;76.40;;;;;;9182862;19;20023;-61
2022/04/10 02:33:40;;;;;;;11.10;2.55;;;4.30;76.40;;;;;;9182139;19;20011;-61
2022/04/10 02:36:45;;;;;;;22.02;2.97;;;4.30;76.50;;;;;;9177491;19;20010;-62
2022/04/10 02:39:52;;;;;;;6.78;3.10;;;4.30;76.50;;;;;;9183343;19;20011;-61
2022/04/10 02:43:03;;;;;;;10.60;2.67;;;4.30;76.50;;;;;;9180758;19;20408;-62
2022/04/10 02:46:09;;;;;;;10.77;2.53;;;4.30;76.50;;;;;;9182052;19;20003;-63
2022/04/10 02:49:19;;;;;;;12.43;2.88;;;4.30;76.50;;;;;;9180670;19;20026;-63
2022/04/10 02:52:27;;;;;;;10.80;2.80;;;4.30;76.50;;;;;;9180469;19;20017;-62
2022/04/10 02:55:33;;;;;;;9.07;2.97;;;4.20;76.40;;;;;;9180869;19;20015;-64
2022/04/10 02:58:59;;;;;;;8.00;2.95;;;4.20;76.50;;;;;;9178977;19;20356;-63
2022/04/10 03:02:25;;;;;;;12.90;3.30;;;4.20;76.50;;;;;;9182443;19;20364;-63
2022/04/10 03:05:50;;;;;;;12.52;2.83;;;4.20;76.50;;;;;;9179722;19;20014;-62
2022/04/10 03:09:14;;;;;;;12.95;2.78;;;4.20;76.60;;;;;;9177953;19;20015;-62
2022/04/10 03:12:38;;;;;;;12.35;3.35;;;4.20;76.70;;;;;;9181277;19;20018;-64
2022/04/10 03:16:06;;;;;;;13.32;3.38;;;4.30;76.80;;;;;;9185797;19;20388;-63
2022/04/10 03:19:31;;;;;;;12.43;2.75;;;4.20;76.60;;;;;;9185860;19;20102;-62
2022/04/10 03:22:58;;;;;;;9.27;2.92;;;4.20;76.60;;;;;;9192261;19;20006;-62
2022/04/10 03:26:22;;;;;;;12.20;2.72;;;4.30;76.70;;;;;;9189268;19;20098;-63
2022/04/10 03:29:46;;;;;;;11.65;2.22;;;4.30;76.70;;;;;;9188971;19;20018;-62
2022/04/10 03:33:13;;;;;;;15.40;3.13;;;4.30;76.70;;;;;;9188832;19;20014;-63
2022/04/10 03:36:40;;;;;;;14.25;3.15;;;4.30;76.70;;;;;;9184992;19;20025;-62
2022/04/10 03:40:10;;;;;;;14.82;2.67;;;4.30;76.70;;;;;;9185435;19;20021;-63
2022/04/10 03:43:42;;;;;;;10.80;2.42;;;4.30;76.70;;;;;;9188593;19;20471;-63
2022/04/10 03:47:06;;;;;;;14.30;2.47;;;4.30;76.70;;;;;;9188015;19;20032;-62
2022/04/10 03:50:33;;;;;;;;;;;4.40;76.80;;;;;;9189589;19;20031;-63
2022/04/10 03:53:58;;;;;;;11.88;3.17;;;4.40;76.70;;;;;;9188790;19;19931;-63
2022/04/10 03:57:22;;;;;;;6.80;2.15;;;4.40;76.60;;;;;;9187427;19;20074;-62
2022/04/10 04:00:48;;;;;;;13.23;3.40;;;4.40;76.60;;;;;;9187711;19;20065;-64
2022/04/10 04:04:12;;;;;;;8.40;3.22;;;4.40;76.60;;;;;;9186650;19;20018;-63
2022/04/10 04:07:39;;;;;;;7.57;3.55;;;4.30;76.60;;;;;;9188095;19;20067;-62
2022/04/10 04:11:03;;;;;;;13.38;3.38;;;4.40;76.70;;;;;;9187253;19;20420;-64
2022/04/10 04:14:27;;;;;;;8.35;3.00;;;4.40;76.70;;;;;;9186547;19;20014;-62
2022/04/10 04:17:51;;;;;;;13.68;3.03;;;4.30;76.70;;;;;;9186848;19;20018;-63
2022/04/10 04:21:16;;;;;;;13.05;3.28;;;4.30;76.70;;;;;;9188769;19;20082;-62
2022/04/10 04:24:44;;;;;;;6.88;2.60;;;4.30;76.60;;;;;;9186357;19;20078;-63
2022/04/10 04:28:08;;;;;;;12.30;3.35;;;4.30;76.70;;;;;;9184558;19;20018;-62
2022/04/10 04:31:33;;;;;;;16.10;6.28;;;4.30;76.60;;;;;;9187368;19;20081;-62
2022/04/10 04:34:57;;;;;;;12.43;5.40;;;4.30;76.60;;;;;;9185826;19;20030;-62
2022/04/10 04:38:21;;;;;;;;;;;4.20;76.50;;;;;;9186084;19;20011;-63
2022/04/10 04:41:47;;;;;;;10.70;2.50;;;4.20;76.50;;;;;;9185810;19;19922;-62
2022/04/10 04:45:12;;;;;;;7.72;2.08;;;4.20;76.60;;;;;;9182188;19;20014;-64
2022/04/10 04:48:49;;;;;;;7.75;1.83;;;4.20;76.60;;;;;;9174419;19;20053;-64
2022/04/10 04:52:13;;;;;;;7.90;2.00;;;4.10;76.50;;;;;;9183770;19;20014;-64
2022/04/10 04:55:37;;;;;;;12.43;1.98;;;4.10;76.60;;;;;;9180732;19;20031;-63
2022/04/10 04:59:04;;;;;;;3.40;1.63;;;4.10;77.20;;;;;;9179238;19;20003;-64
2022/04/10 05:02:28;;;;;;;6.57;2.22;;;4.10;76.60;;;;;;9181140;19;20021;-64
2022/04/10 05:05:52;;;;;;;11.35;2.42;;;4.00;76.60;;;;;;9181745;19;20560;-65
2022/04/10 05:09:21;;;;;;;8.27;2.03;;;4.00;76.70;;;;;;9178025;19;20022;-63
2022/04/10 05:12:45;;;;;;;13.55;2.35;;;4.00;76.70;;;;;;9181066;19;20472;-63
2022/04/10 05:16:14;;;;;;;8.52;1.50;;;3.90;76.70;;;;;;9181541;19;20097;-63
2022/04/10 05:19:41;;;;;;;9.57;1.60;;;3.90;76.80;;;;;;9179432;19;20476;-62
2022/04/10 05:23:05;;;;;;;8.25;2.13;;;3.90;76.80;;;;;;9182347;19;20018;-64
2022/04/10 05:26:32;;;;;;;11.57;2.28;;;3.90;76.80;;;;;;9179494;19;20351;-63
2022/04/10 05:29:57;;;;;;;12.45;2.03;;;3.90;76.80;;;;;;9180475;19;20015;-65
2022/04/10 05:33:23;;;;;;;18.52;1.67;;;3.90;76.90;;;;;;9179383;19;20006;-62
2022/04/10 05:36:47;;;;;;;11.70;2.60;;;3.90;76.90;;;;;;9173866;19;20451;-64
2022/04/10 05:40:13;;;;;;;6.95;1.48;;;3.80;76.90;;;;;;9179091;19;20007;-62
2022/04/10 05:43:37;;;;;;;10.35;2.95;;;3.90;77.00;;;;;;9179361;19;20022;-62
2022/04/10 05:47:01;;;;;;;8.50;2.30;;;3.90;77.10;;;;;;9180501;19;20018;-63
2022/04/10 05:50:27;;;;;;;7.53;2.50;;;3.90;77.10;;;;;;9178853;19;20110;-62
2022/04/10 05:53:51;;;;;;;13.77;1.88;;;3.90;77.10;;;;;;9178650;19;20022;-62
2022/04/10 05:57:15;;;;;;;5.18;2.20;;;3.90;77.10;;;;;;9177933;19;20086;-61
2022/04/10 06:00:40;;;;;;;7.47;1.90;;;4.00;77.10;;;;;;9171828;19;20006;-63
2022/04/10 06:04:10;;;;;;;17.90;2.83;;;4.00;77.20;;;;;;9173572;19;20015;-63
2022/04/10 06:07:37;;;;;;;9.43;1.80;;;4.00;77.20;;;;;;9170731;19;20026;-62
2022/04/10 06:11:00;;;;;;;11.50;1.67;;;4.00;77.20;;;;;;9173277;19;20022;-62
2022/04/10 06:14:25;;;;;;;6.43;1.73;;;4.10;77.20;;;;;;9172951;19;20088;-60
2022/04/10 06:17:30;;;;;;;4.43;1.67;;;4.10;77.20;;;;;;9172371;19;20027;-60
2022/04/10 06:20:37;;;;;;;5.55;1.98;;;4.10;77.20;;;;;;9174662;19;20097;-62
2022/04/10 06:23:45;;;;;;;6.15;1.40;;;4.20;77.30;;;;;;9179177;19;20486;-62
2022/04/10 06:26:56;;;;;;;5.95;2.17;;;4.20;77.30;;;;;;9177548;19;20023;-61
2022/04/10 06:30:01;;;;;;;6.28;1.52;;;4.20;77.30;;;;;;9179229;19;20010;-61
2022/04/10 06:33:11;;;;;;;5.35;1.73;;;4.20;77.40;;;;;;9177252;19;20034;-60
2022/04/10 06:36:16;;;;;;;8.05;1.63;;;4.30;77.50;;;;;;9175400;19;20030;-62
2022/04/10 06:39:26;;;;;;;4.35;1.10;;;4.30;77.50;;;;;;9178844;19;20022;-62
2022/04/10 06:42:33;;;;;;;10.32;1.83;;;4.30;77.60;;;;;;9179167;19;20042;-61
2022/04/10 06:45:58;;;;;;;4.28;0.98;;;4.40;77.60;;;;;;9179028;19;20022;-61
2022/04/10 06:49:12;;;;;;;9.45;1.63;;;4.40;77.60;;;;;;9176706;19;20543;-61
2022/04/10 06:52:19;;;;;;;6.38;2.45;;;4.50;77.70;;;;;;9188765;19;20082;-60
2022/04/10 06:55:28;;;;;;;7.05;1.80;;;4.50;78.30;;;;;;9187965;19;20089;-61
2022/04/10 06:58:38;;;;;;;8.70;1.40;;;4.60;77.80;;;;;;9187000;19;20452;-61
2022/04/10 07:01:43;;;;;;;9.43;2.33;;;4.70;77.90;;;;;;9185562;19;20383;-61
2022/04/10 07:04:49;;;;;;;13.52;2.83;;;4.70;77.90;;;;;;9187203;19;20077;-61
2022/04/10 07:07:54;;;;;;;5.55;1.27;;;4.70;77.90;;;;;;9185747;19;20407;-63
2022/04/10 07:11:02;;;;;;;3.63;1.58;;;4.80;78.00;;;;;;9187026;19;20466;-63
2022/04/10 07:14:09;;;;;;;7.95;1.73;;;4.90;78.30;;;;;;9187990;19;20011;-61
2022/04/10 07:17:16;;;;;;;6.43;1.38;;;5.00;78.50;;;;;;9182524;19;20018;-63
2022/04/10 07:20:25;;;;;;;6.15;2.13;;;5.20;78.70;;;;;;9186008;19;20026;-63
2022/04/10 07:23:43;;;;;;;5.85;1.38;;;5.30;78.90;;;;;;9186416;19;20018;-63
2022/04/10 07:27:06;;;;;;;9.95;2.45;;;5.50;79.00;;;;;;9188299;19;20011;-61
2022/04/10 07:30:19;;;;;;;3.67;1.50;;;5.60;78.90;;;;;;9187787;19;20041;-61
2022/04/10 07:33:25;;;;;;;7.20;1.70;;;5.80;78.90;;;;;;9188121;19;20402;-61
2022/04/10 07:36:34;;;;;;;3.88;1.30;;;6.00;78.90;;;;;;9176106;19;20029;-62
2022/04/10 07:39:41;;;;;;;3.65;1.38;;;6.10;79.00;;;;;;9174904;19;20025;-61
2022/04/10 07:42:59;;;;;;;9.52;1.95;;;6.30;78.90;;;;;;9174626;19;20021;-64
2022/04/10 07:49:30;;;;;;;6.53;1.38;;;6.60;78.70;;;;;;9175510;19;20002;-64
2022/04/10 07:52:41;;;;;;;9.07;1.30;;;6.70;78.60;;;;;;9174332;19;20014;-64
2022/04/10 07:55:55;;;;;;;4.97;1.65;;;6.90;78.70;;;;;;9174636;19;20018;-63
2022/04/10 07:59:03;;;;;;;5.18;1.23;;;7.00;78.70;;;;;;9167312;19;20022;-63
2022/04/10 08:02:14;;;;;;;7.90;1.55;;;7.20;78.90;;;;;;9178784;19;20053;-64
2022/04/10 08:05:21;;;;;;;6.53;1.75;;;7.30;78.90;;;;;;9180212;19;20066;-64
2022/04/10 08:08:36;;;;;;;7.65;1.42;;;7.50;78.80;;;;;;9179956;19;20360;-63
2022/04/10 08:11:44;;;;;;;7.85;1.95;;;7.70;78.70;;;;;;9179788;19;20025;-64
2022/04/10 08:14:52;;;;;;;5.00;1.38;;;7.80;78.60;;;;;;9181634;19;20022;-63
2022/04/10 08:17:57;;;;;;;10.77;1.48;;;8.00;78.60;;;;;;9183808;19;20021;-64
2022/04/10 08:21:03;;;;;;;7.80;1.48;;;8.10;78.60;;;;;;9181844;19;20039;-63
2022/04/10 08:24:09;;;;;;;4.60;1.05;;;8.30;78.50;;;;;;9181968;19;20015;-61
2022/04/10 08:27:14;;;;;;;4.75;1.50;;;8.50;78.50;;;;;;9182324;19;20029;-63
2022/04/10 08:30:22;;;;;;;4.07;1.75;;;8.70;78.50;;;;;;9182051;19;20487;-62
2022/04/10 08:33:27;;;;;;;2.88;1.55;;;8.80;78.30;;;;;;9182390;19;20022;-62
2022/04/10 08:36:33;;;;;;;6.95;1.20;;;9.00;78.20;;;;;;9181076;19;20387;-62
2022/04/10 08:39:38;;;;;;;2.22;1.10;;;9.20;78.20;;;;;;9185444;19;20033;-63
2022/04/10 08:42:43;;;;;;;3.47;1.27;;;9.40;78.10;;;;;;9186707;19;20372;-62
2022/04/10 08:45:51;;;;;;;3.22;1.10;;;9.60;77.70;;;;;;9185920;19;20014;-62
2022/04/10 08:48:58;;;;;;;2.85;1.02;;;9.70;77.50;;;;;;9185404;19;20483;-63
2022/04/10 08:52:03;;;;;;;6.10;1.83;;;9.80;77.40;;;;;;9187027;19;20026;-62
2022/04/10 08:55:09;;;;;;;3.55;0.95;;;10.00;77.40;;;;;;9184683;19;20368;-62
2022/04/10 08:58:14;;;;;;;6.50;1.10;;;10.10;77.10;;;;;;9185547;19;20371;-63
2022/04/10 09:01:23;;;;;;;5.00;1.00;;;10.20;76.90;;;;;;9185808;19;20019;-62
2022/04/10 09:04:28;;;;;;;7.35;1.27;;;10.30;76.70;;;;;;9184315;19;20022;-64
2022/04/10 09:07:33;;;;;;;5.70;1.13;;;10.40;76.70;;;;;;9182635;19;20490;-66
2022/04/10 09:10:57;;;;;;;9.20;1.27;;;10.50;76.50;;;;;;9178632;19;20647;-62
2022/04/10 09:14:03;;;;;;;7.45;1.35;;;10.50;76.30;;;;;;9177193;19;20495;-63
2022/04/10 09:17:16;;;;;;;10.40;1.80;;;10.70;76.40;;;;;;9179664;19;20019;-62
2022/04/10 09:20:21;;;;;;;7.40;1.25;;;10.80;76.20;;;;;;9178677;19;20006;-62
2022/04/10 09:23:26;;;;;;;2.72;1.10;;;10.80;76.10;;;;;;9180165;19;20015;-64
2022/04/10 09:26:46;;;;;;;5.32;2.00;;;10.90;76.10;;;;;;9179908;19;20538;-63
2022/04/10 09:29:53;;;;;;;10.20;2.10;;;11.10;75.80;;;;;;9177337;19;20601;-62
2022/04/10 09:33:00;;;;;;;6.35;1.63;;;11.20;75.80;;;;;;9178503;19;20051;-62
2022/04/10 09:36:05;;;;;;;6.68;1.25;;;11.30;75.70;;;;;;9172799;19;20015;-61
2022/04/10 09:39:13;;;;;;;7.40;0.95;;;11.40;75.50;;;;;;9179156;19;20018;-63
2022/04/10 09:42:18;;;;;;;4.35;1.10;;;11.50;75.20;;;;;;9177808;19;20649;-65
2022/04/10 09:45:44;;;;;;;2.85;0.85;;;11.60;74.90;;;;;;9176698;19;20022;-61
2022/04/10 09:48:52;;;;;;;4.50;0.82;;;11.60;74.70;;;;;;9177880;19;20018;-61
2022/04/10 09:52:02;;;;;;;4.18;1.08;;;11.70;74.60;;;;;;9177155;19;20014;-64
2022/04/10 09:55:09;;;;;;;11.00;1.30;;;11.70;74.60;;;;;;9177862;19;20043;-64
2022/04/10 09:58:15;;;;;;;22.27;2.17;;;11.70;74.60;;;;;;9177356;19;20010;-62
2022/04/10 10:01:20;;;;;;;3.60;1.27;;;11.80;74.70;;;;;;9175834;19;20079;-63
2022/04/10 10:04:28;;;;;;;5.15;0.93;;;11.90;74.60;;;;;;9177448;19;20656;-62
2022/04/10 10:07:34;;;;;;;6.80;1.17;;;11.90;74.40;;;;;;9175586;19;20047;-63
2022/04/10 10:10:40;;;;;;;6.80;1.70;;;12.00;74.20;;;;;;9176569;19;20043;-62
2022/04/10 10:13:46;;;;;;;6.45;1.30;;;12.10;74.20;;;;;;9176788;19;20022;-62
2022/04/10 10:16:51;;;;;;;9.23;1.35;;;12.20;73.90;;;;;;9176809;19;20372;-62
2022/04/10 10:20:00;;;;;;;7.93;1.50;;;12.30;73.80;;;;;;9177237;19;20365;-63
2022/04/10 10:23:09;;;;;;;16.75;2.60;;;12.40;73.60;;;;;;9176275;19;20018;-63
2022/04/10 10:26:34;;;;;;;4.70;1.42;;;12.50;73.70;;;;;;9175850;19;20831;-64
2022/04/10 10:29:56;;;;;;;9.63;1.33;;;12.60;73.40;;;;;;9177026;19;20340;-63
2022/04/10 10:33:14;;;;;;;5.72;1.30;;;12.80;73.30;;;;;;9174887;19;20483;-63
2022/04/10 10:36:31;;;;;;;19.00;1.58;;;12.90;73.00;;;;;;9173202;19;20026;-64
2022/04/10 10:39:47;;;;;;;4.60;1.05;;;13.10;73.00;;;;;;9176047;19;20344;-64
2022/04/10 10:42:53;;;;;;;5.40;1.08;;;13.20;72.60;;;;;;9174150;19;20011;-62
2022/04/10 10:46:00;;;;;;;14.50;2.10;;;13.30;72.50;;;;;;9174338;19;20367;-64
2022/04/10 10:49:25;;;;;;;9.63;1.50;;;13.40;72.30;;;;;;9174761;19;20391;-61
2022/04/10 10:52:33;;;;;;;9.43;1.50;;;13.50;72.10;;;;;;9175138;19;20363;-63
2022/04/10 10:55:47;;;;;;;6.32;1.10;;;13.50;71.70;;;;;;9176024;19;20021;-63
2022/04/10 10:58:52;;;;;;;5.45;1.52;;;13.60;71.30;;;;;;9174838;19;20055;-63
2022/04/10 11:02:02;;;;;;;6.65;1.40;;;13.60;71.50;;;;;;9173368;19;20014;-64
2022/04/10 11:05:09;;;;;;;4.88;1.63;;;13.60;71.20;;;;;;9176476;19;20058;-65
2022/04/10 11:08:18;;;;;;;3.40;1.00;;;13.70;71.00;;;;;;9172057;19;20018;-61
2022/04/10 11:11:23;;;;;;;9.30;1.70;;;13.70;70.70;;;;;;9173492;19;20021;-64
2022/04/10 11:14:36;;;;;;;9.27;1.88;;;13.80;70.60;;;;;;9173612;19;20491;-65
2022/04/10 11:17:42;;;;;;;4.82;1.58;;;13.80;70.40;;;;;;9176112;19;20037;-64
2022/04/10 11:20:56;;;;;;;6.38;1.73;;;13.90;70.60;;;;;;9172625;19;20034;-62
2022/04/10 11:24:04;;;;;;;6.05;1.10;;;14.00;70.10;;;;;;9176066;19;20023;-64
2022/04/10 11:27:13;;;;;;;12.75;1.83;;;14.10;70.10;;;;;;9173139;19;20015;-64
2022/04/10 11:30:26;;;;;;;4.88;1.77;;;14.20;69.60;;;;;;9173928;19;20026;-64
2022/04/10 11:33:50;;;;;;;7.88;1.42;;;14.30;69.40;;;;;;9171192;19;20022;-66
2022/04/10 11:36:57;;;;;;;1.70;0.80;;;14.40;68.80;;;;;;9175847;19;20011;-65
2022/04/10 11:40:05;;;;;;;8.32;1.45;;;14.50;69.20;;;;;;9184254;19;20018;-64
2022/04/10 11:43:12;;;;;;;5.80;1.20;;;14.60;68.70;;;;;;9179204;19;20429;-62
2022/04/10 11:46:17;;;;;;;3.88;1.33;;;14.60;68.40;;;;;;9183739;19;20014;-64
2022/04/10 11:49:23;;;;;;;8.05;1.50;;;14.70;68.30;;;;;;9181987;19;20058;-64
2022/04/10 11:52:27;;;;;;;7.13;1.67;;;14.70;68.10;;;;;;9181478;19;20037;-65
2022/04/10 11:55:37;;;;;;;9.60;1.25;;;14.70;67.80;;;;;;9180183;19;20021;-65
2022/04/10 11:58:42;;;;;;;7.70;1.77;;;14.70;67.50;;;;;;9183337;19;20102;-63
2022/04/10 12:01:47;;;;;;;5.30;1.27;;;14.70;67.50;;;;;;9181235;19;20015;-64
2022/04/10 12:04:53;;;;;;;5.97;1.42;;;14.80;67.40;;;;;;9182104;19;20018;-65
2022/04/10 12:08:02;;;;;;;5.85;1.20;;;14.80;67.30;;;;;;9180259;19;20022;-62
2022/04/10 12:11:10;;;;;;;5.30;0.93;;;14.90;67.10;;;;;;9186528;19;20014;-63
2022/04/10 12:14:24;;;;;;;4.35;0.80;;;14.90;66.80;;;;;;9189278;19;20016;-64
2022/04/10 12:17:29;;;;;;;3.15;1.00;;;15.00;66.30;;;;;;9187235;19;20026;-62
2022/04/10 12:21:01;;;;;;;9.80;1.83;;;15.10;66.60;;;;;;9186503;19;20090;-64
2022/04/10 12:24:08;;;;;;;6.07;0.98;;;15.10;66.10;;;;;;9183524;19;20010;-62
2022/04/10 12:27:17;;;;;;;5.53;1.17;;;15.10;66.10;;;;;;9186928;19;20019;-65
2022/04/10 12:30:23;;;;;;;5.70;1.05;;;15.10;65.80;;;;;;9184965;19;20017;-63
2022/04/10 12:33:29;;;;;;;7.97;1.02;;;15.20;65.80;;;;;;9187376;19;20014;-62
2022/04/10 12:36:34;;;;;;;2.83;0.70;;;15.10;65.70;;;;;;9182510;19;20019;-62
2022/04/10 12:39:39;;;;;;;7.30;1.15;;;15.20;65.70;;;;;;9184110;19;20018;-62
2022/04/10 12:42:47;;;;;;;5.78;0.95;;;15.20;65.50;;;;;;9184449;19;20011;-63
2022/04/10 12:45:51;;;;;;;3.80;0.98;;;15.20;65.20;;;;;;9185506;19;20381;-62
2022/04/10 12:49:11;;;;;;;4.72;1.10;;;15.20;65.10;;;;;;9185462;19;20029;-63
2022/04/10 12:52:20;;;;;;;2.40;0.80;;;15.20;64.20;;;;;;9187959;19;20017;-66
2022/04/10 12:55:27;;;;;;;4.40;1.15;;;15.20;64.40;;;;;;9186765;19;20021;-62
2022/04/10 12:58:51;;;;;;;6.38;0.93;;;15.10;64.40;;;;;;9185326;19;20033;-65
2022/04/10 13:01:57;;;;;;;6.40;1.20;;;15.10;63.80;;;;;;9184373;19;20015;-65
2022/04/10 13:05:04;;;;;;;9.68;1.25;;;15.00;64.40;;;;;;9186207;19;20017;-62
2022/04/10 13:08:09;;;;;;;4.95;1.08;;;14.90;64.20;;;;;;9183877;19;20355;-63
2022/04/10 13:11:14;;;;;;;5.15;1.20;;;14.80;64.10;;;;;;9184538;19;20019;-63
2022/04/10 13:14:36;;;;;;;6.97;1.05;;;14.80;64.10;;;;;;9186272;19;20017;-62
2022/04/10 13:17:42;;;;;;;9.15;1.25;;;14.70;64.00;;;;;;9184302;19;20665;-63
2022/04/10 13:20:47;;;;;;;4.45;1.00;;;14.70;64.10;;;;;;9185792;19;20034;-64
2022/04/10 13:23:52;;;;;;;4.00;1.00;;;14.70;64.10;;;;;;9183130;19;20010;-62
2022/04/10 13:26:58;;;;;;;4.85;1.27;;;14.70;64.00;;;;;;9181075;19;20022;-63
2022/04/10 13:30:07;;;;;;;3.47;1.02;;;14.70;63.90;;;;;;9179649;19;20030;-63
2022/04/10 13:33:12;;;;;;;1.40;0.88;;;14.70;63.60;;;;;;9178949;19;20014;-65
2022/04/10 13:36:17;;;;;;;5.05;1.20;;;14.70;63.70;;;;;;9173371;19;20022;-63
2022/04/10 13:39:22;;;;;;;3.67;1.17;;;14.70;63.70;;;;;;9179166;19;20018;-65
2022/04/10 13:42:27;;;;;;;7.82;2.10;;;14.70;63.70;;;;;;9176325;19;20018;-62
2022/04/10 13:45:35;;;;;;;4.20;1.10;;;14.80;63.50;;;;;;9177736;19;20014;-62
2022/04/10 13:48:41;;;;;;;3.97;1.00;;;14.80;63.30;;;;;;9176989;19;20019;-63
2022/04/10 13:51:46;;;;;;;6.05;1.10;;;14.80;63.20;;;;;;9178768;19;20043;-65
2022/04/10 13:54:52;;;;;;;6.78;1.00;;;14.90;63.10;;;;;;9177989;19;20014;-63
2022/04/10 13:57:57;;;;;;;6.90;1.27;;;14.90;63.00;;;;;;9177215;19;20381;-63
2022/04/10 14:01:05;;;;;;;6.90;1.10;;;14.90;62.90;;;;;;9177140;19;20376;-63
2022/04/10 14:04:10;;;;;;;3.83;0.60;;;15.00;62.60;;;;;;9175850;19;20010;-63
2022/04/10 14:07:16;;;;;;;4.35;0.98;;;15.00;62.60;;;;;;9178791;19;20019;-63
2022/04/10 14:10:21;;;;;;;5.47;1.20;;;15.00;62.50;;;;;;9178616;19;20018;-64
2022/04/10 14:13:26;;;;;;;2.35;0.88;;;15.10;62.40;;;;;;9173534;19;20018;-63
2022/04/10 14:16:34;;;;;;;5.32;1.70;;;15.10;62.10;;;;;;9177239;19;20043;-63
2022/04/10 14:19:39;;;;;;;6.90;1.73;;;15.10;61.80;;;;;;9175536;19;20089;-63
2022/04/10 14:22:44;;;;;;;2.83;0.90;;;15.10;61.80;;;;;;9175864;19;20340;-62
2022/04/10 14:25:49;;;;;;;3.08;0.85;;;15.20;61.70;;;;;;9177248;19;20014;-63
2022/04/10 14:28:54;;;;;;;4.22;1.35;;;15.20;61.50;;;;;;9177322;19;20660;-63
2022/04/10 14:32:02;;;;;;;5.25;0.95;;;15.10;61.30;;;;;;9173940;19;20025;-63
2022/04/10 14:35:08;;;;;;;2.88;1.10;;;15.10;61.10;;;;;;9172254;19;20014;-63
2022/04/10 14:38:13;;;;;;;2.72;0.93;;;15.10;61.00;;;;;;9174476;19;20479;-62
2022/04/10 14:41:20;;;;;;;1.67;0.65;;;15.00;60.90;;;;;;9173777;19;20659;-62
2022/04/10 14:44:25;;;;;;;2.33;0.55;;;15.00;60.80;;;;;;9174003;19;20018;-64
2022/04/10 14:47:33;;;;;;;4.18;0.82;;;15.00;60.70;;;;;;9173479;19;20059;-61
2022/04/10 14:50:39;;;;;;;5.72;1.38;;;14.90;60.50;;;;;;9174126;19;20018;-64
2022/04/10 14:53:44;;;;;;;3.13;1.30;;;14.90;60.60;;;;;;9173870;19;20014;-64
2022/04/10 14:56:49;;;;;;;2.97;1.20;;;14.90;60.50;;;;;;9175817;19;20011;-63
2022/04/10 14:59:54;;;;;;;5.95;0.80;;;14.80;60.40;;;;;;9173536;19;20014;-62
2022/04/10 15:03:02;;;;;;;4.72;0.88;;;14.80;60.30;;;;;;9174136;19;20035;-65
2022/04/10 15:06:07;;;;;;;3.13;0.75;;;14.80;60.10;;;;;;9175988;19;20026;-62
2022/04/10 15:09:12;;;;;;;4.93;0.95;;;14.70;60.10;;;;;;9172110;19;20022;-64
2022/04/10 15:12:17;;;;;;;1.30;0.60;;;14.70;60.10;;;;;;9181904;19;20493;-64
2022/04/10 15:15:22;;;;;;;4.80;1.80;;;14.60;60.00;;;;;;9182868;19;20023;-63
2022/04/10 15:18:29;;;;;;;5.13;1.20;;;14.60;60.00;;;;;;9184444;19;20018;-64
2022/04/10 15:21:34;;;;;;;4.45;1.00;;;14.60;59.80;;;;;;9184075;19;20013;-62
2022/04/10 15:24:39;;;;;;;5.03;0.90;;;14.60;59.90;;;;;;9181425;19;20737;-63
2022/04/10 15:27:45;;;;;;;5.47;0.98;;;14.50;59.80;;;;;;9183241;19;20069;-66
2022/04/10 15:30:50;;;;;;;3.22;1.10;;;14.50;59.70;;;;;;9185310;19;20021;-64
2022/04/10 15:33:57;;;;;;;2.55;0.90;;;14.50;59.60;;;;;;9182879;19;20669;-63
2022/04/10 15:37:02;;;;;;;3.60;1.02;;;14.40;59.40;;;;;;9179861;19;20014;-64
2022/04/10 15:40:08;;;;;;;2.53;0.85;;;14.40;59.60;;;;;;9182098;19;20013;-64
2022/04/10 15:43:13;;;;;;;3.17;0.85;;;14.30;59.50;;;;;;9184017;19;20417;-64
2022/04/10 15:46:18;;;;;;;3.97;1.02;;;14.30;59.60;;;;;;9183492;19;20014;-61
2022/04/10 15:49:26;;;;;;;8.85;1.67;;;14.20;59.50;;;;;;9181459;19;20761;-63
2022/04/10 15:52:31;;;;;;;2.35;0.75;;;14.20;59.30;;;;;;9181190;19;20059;-63
2022/04/10 15:55:37;;;;;;;5.00;0.90;;;14.10;59.40;;;;;;9182086;19;20018;-65
2022/04/10 15:58:42;;;;;;;2.17;0.75;;;14.10;59.40;;;;;;9181975;19;20029;-62
2022/04/10 16:01:47;;;;;;;4.00;1.13;;;14.00;59.30;;;;;;9181683;19;20014;-62
2022/04/10 16:04:54;;;;;;;3.60;1.10;;;14.00;59.20;;;;;;9178665;19;20035;-62
2022/04/10 16:07:59;;;;;;;1.40;0.52;;;13.90;59.00;;;;;;9178997;19;20365;-64
2022/04/10 16:11:05;;;;;;;9.15;1.13;;;13.80;59.00;;;;;;9180986;19;20018;-62
2022/04/10 16:14:10;;;;;;;4.50;0.80;;;13.80;59.00;;;;;;9183385;19;20014;-64
2022/04/10 16:17:18;;;;;;;3.45;1.10;;;13.70;59.00;;;;;;9180307;19;20364;-63
2022/04/10 16:20:25;;;;;;;5.68;1.08;;;13.70;59.00;;;;;;9179886;19;20078;-65
2022/04/10 16:23:30;;;;;;;6.28;1.50;;;13.70;59.00;;;;;;9178300;19;20015;-63
2022/04/10 16:26:36;;;;;;;4.43;1.48;;;13.60;59.00;;;;;;9175315;19;20027;-64
2022/04/10 16:33:01;;;;;;;5.68;1.20;;;13.50;58.90;;;;;;9180165;19;20760;-63
2022/04/10 16:36:09;;;;;;;3.80;1.00;;;13.50;59.00;;;;;;9176564;19;20017;-63
2022/04/10 16:39:15;;;;;;;3.33;0.90;;;13.50;59.00;;;;;;9178354;19;20030;-63
2022/04/10 16:42:20;;;;;;;3.33;0.85;;;13.40;59.00;;;;;;9179659;19;20025;-64
2022/04/10 16:45:25;;;;;;;4.82;1.00;;;13.30;58.90;;;;;;9177544;19;20018;-62